Time;durP1;ratioP1;P1;durP2;ratioP2;P2;SDS_P1;SDS_P2;PMS_P1;PMS_P2;Temp;Humidity;BMP_temperature;BMP_pressure;BME280_temperature;BME280_humidity;BME280_pressure;Samples;Min_cycle;Max_cycle;Signal;HPM_P1;HPM_P2
2021/09/17 00:00:36;;;;;;;95.15;49.85;;;13.80;99.90;;;;;;4196678;28;20046;-71
2021/09/17 00:02:37;;;;;;;103.00;54.47;;;13.80;99.90;;;;;;4193125;28;20488;-72
2021/09/17 00:04:37;;;;;;;95.65;49.80;;;13.70;99.90;;;;;;4197308;28;20071;-71
2021/09/17 00:06:38;;;;;;;92.65;51.05;;;13.80;99.90;;;;;;4194146;28;20035;-71
2021/09/17 00:08:39;;;;;;;112.43;58.70;;;13.80;99.90;;;;;;4199369;28;20059;-71
2021/09/17 00:10:39;;;;;;;98.35;52.47;;;13.80;99.90;;;;;;4198008;28;20376;-71
2021/09/17 00:12:42;;;;;;;100.25;51.97;;;13.80;99.90;;;;;;4196815;28;20030;-71
2021/09/17 00:14:43;;;;;;;93.97;52.50;;;13.80;99.90;;;;;;4192060;28;20028;-71
2021/09/17 00:16:44;;;;;;;91.47;49.83;;;13.80;99.90;;;;;;4187954;28;20388;-70
2021/09/17 00:18:45;;;;;;;93.35;51.38;;;13.90;99.90;;;;;;4192752;28;20048;-71
2021/09/17 00:20:46;;;;;;;90.40;48.72;;;13.90;99.90;;;;;;4196384;28;20037;-72
2021/09/17 00:22:48;;;;;;;83.15;46.22;;;13.90;99.90;;;;;;4201000;28;20058;-71
2021/09/17 00:24:48;;;;;;;92.13;52.72;;;13.90;99.90;;;;;;4196646;28;20059;-72
2021/09/17 00:26:49;;;;;;;87.40;48.15;;;13.90;99.90;;;;;;4197571;28;20082;-71
2021/09/17 00:28:50;;;;;;;81.82;50.42;;;13.90;99.90;;;;;;4187462;28;20559;-72
2021/09/17 00:30:50;;;;;;;84.20;48.15;;;13.90;99.90;;;;;;4196513;28;20048;-71
2021/09/17 00:32:51;;;;;;;73.78;44.20;;;13.90;99.90;;;;;;4196673;28;20032;-72
2021/09/17 00:34:51;;;;;;;83.95;48.25;;;13.90;99.90;;;;;;4193731;28;20546;-71
2021/09/17 00:36:52;;;;;;;78.93;45.80;;;13.80;99.90;;;;;;4194550;28;20056;-71
2021/09/17 00:38:53;;;;;;;95.00;52.00;;;13.90;99.90;;;;;;4193112;28;20056;-71
2021/09/17 00:40:53;;;;;;;101.57;53.30;;;13.90;99.90;;;;;;4195526;28;20474;-71
2021/09/17 00:42:54;;;;;;;89.97;52.25;;;13.90;99.90;;;;;;4190991;28;20491;-72
2021/09/17 00:44:54;;;;;;;96.25;53.38;;;13.80;99.90;;;;;;4191905;28;20073;-73
2021/09/17 00:46:56;;;;;;;87.90;48.22;;;13.90;99.90;;;;;;4197646;28;20024;-71
2021/09/17 00:48:57;;;;;;;82.80;44.13;;;13.90;99.90;;;;;;4196912;28;20036;-72
2021/09/17 00:50:58;;;;;;;86.60;45.55;;;13.80;99.90;;;;;;4197036;28;20132;-72
2021/09/17 00:52:59;;;;;;;84.85;45.45;;;13.90;99.90;;;;;;4199299;28;20104;-71
2021/09/17 00:54:59;;;;;;;95.68;51.72;;;13.90;99.90;;;;;;4192552;28;20021;-71
2021/09/17 00:57:03;;;;;;;97.05;52.65;;;13.90;99.90;;;;;;4197246;28;20656;-70
2021/09/17 00:59:04;;;;;;;94.85;50.63;;;13.90;99.90;;;;;;4192985;28;20028;-72
2021/09/17 01:01:04;;;;;;;89.57;50.50;;;13.90;99.90;;;;;;4197772;28;20036;-71
2021/09/17 01:03:05;;;;;;;94.03;47.70;;;13.90;99.90;;;;;;4197000;28;20037;-71
2021/09/17 01:05:07;;;;;;;77.55;43.72;;;13.90;99.90;;;;;;4194033;28;20036;-71
2021/09/17 01:07:08;;;;;;;87.95;50.25;;;13.90;99.90;;;;;;4192310;28;20031;-70
2021/09/17 01:09:08;;;;;;;81.90;46.55;;;13.90;99.90;;;;;;4196772;28;20049;-72
2021/09/17 01:11:10;;;;;;;82.63;45.83;;;13.90;99.90;;;;;;4193326;28;20024;-72
2021/09/17 01:13:11;;;;;;;99.07;54.63;;;13.90;99.90;;;;;;4203260;28;20036;-72
2021/09/17 01:15:12;;;;;;;98.68;54.95;;;13.90;99.90;;;;;;4197365;28;20023;-71
2021/09/17 01:17:13;;;;;;;105.75;56.28;;;13.90;99.90;;;;;;4194775;28;20518;-71
2021/09/17 01:19:14;;;;;;;104.72;55.58;;;13.90;99.90;;;;;;4198881;28;20040;-70
2021/09/17 01:21:14;;;;;;;95.43;53.55;;;14.00;99.90;;;;;;4201025;28;20040;-71
2021/09/17 01:23:15;;;;;;;89.90;49.78;;;14.00;99.90;;;;;;4202921;28;20033;-71
2021/09/17 01:25:19;;;;;;;103.15;55.38;;;14.00;99.90;;;;;;4198227;28;20032;-71
2021/09/17 01:27:21;;;;;;;102.68;55.90;;;14.00;99.90;;;;;;4197840;28;20071;-71
2021/09/17 01:29:23;;;;;;;98.95;51.25;;;14.00;99.90;;;;;;4199626;28;20040;-72
2021/09/17 01:31:24;;;;;;;91.88;50.15;;;14.10;99.90;;;;;;4194807;28;20436;-72
2021/09/17 01:33:25;;;;;;;92.80;50.83;;;14.10;99.90;;;;;;4196191;28;20040;-72
2021/09/17 01:35:25;;;;;;;98.00;51.92;;;14.20;99.90;;;;;;4198845;28;20043;-72
2021/09/17 01:37:26;;;;;;;90.15;48.67;;;14.20;99.90;;;;;;4196737;28;20119;-72
2021/09/17 01:39:27;;;;;;;81.47;47.70;;;14.10;99.90;;;;;;4202448;28;20060;-72
2021/09/17 01:41:28;;;;;;;93.35;51.50;;;14.10;99.90;;;;;;4196046;28;20032;-72
2021/09/17 01:43:28;;;;;;;97.20;53.72;;;14.10;99.90;;;;;;4192242;28;20033;-70
2021/09/17 01:45:29;;;;;;;107.70;57.13;;;14.10;99.90;;;;;;4191452;28;20357;-70
2021/09/17 01:47:30;;;;;;;90.63;49.92;;;14.10;99.90;;;;;;4197246;28;20032;-72
2021/09/17 01:49:32;;;;;;;100.03;55.88;;;14.10;99.90;;;;;;4191696;28;20111;-72
2021/09/17 01:51:32;;;;;;;103.72;54.15;;;14.00;99.90;;;;;;4197051;28;20052;-72
2021/09/17 01:53:34;;;;;;;85.00;48.72;;;14.00;99.90;;;;;;4196683;28;20044;-72
2021/09/17 01:55:35;;;;;;;100.82;54.45;;;14.00;99.90;;;;;;4196881;28;20340;-73
2021/09/17 01:57:36;;;;;;;105.80;52.28;;;14.00;99.90;;;;;;4197254;28;20029;-71
2021/09/17 01:59:36;;;;;;;90.70;48.85;;;14.00;99.90;;;;;;4198596;28;20043;-71
2021/09/17 02:01:37;;;;;;;95.70;53.78;;;14.00;99.90;;;;;;4197887;28;20495;-72
2021/09/17 02:03:38;;;;;;;90.05;49.85;;;14.00;99.90;;;;;;4193347;28;20032;-72
2021/09/17 02:05:38;;;;;;;98.32;52.58;;;14.10;99.90;;;;;;4190490;28;20110;-72
2021/09/17 02:07:39;;;;;;;98.68;55.78;;;14.10;99.90;;;;;;4198910;28;20566;-71
2021/09/17 02:09:40;;;;;;;95.28;52.38;;;14.10;99.90;;;;;;4191879;28;20060;-71
2021/09/17 02:11:41;;;;;;;87.82;45.67;;;14.20;99.90;;;;;;4191004;28;20044;-70
2021/09/17 02:13:42;;;;;;;92.18;49.05;;;14.20;99.90;;;;;;4195128;28;20032;-70
2021/09/17 02:15:42;;;;;;;93.38;52.17;;;14.20;99.90;;;;;;4204276;28;20036;-71
2021/09/17 02:17:43;;;;;;;87.35;47.83;;;14.20;99.90;;;;;;4189941;28;20138;-72
2021/09/17 02:19:44;;;;;;;100.45;56.35;;;14.30;99.90;;;;;;4199347;28;20211;-72
2021/09/17 02:21:49;;;;;;;93.30;50.70;;;14.30;99.90;;;;;;4195583;28;20039;-71
2021/09/17 02:23:50;;;;;;;93.63;53.67;;;14.30;99.90;;;;;;4194340;28;20111;-70
2021/09/17 02:25:51;;;;;;;80.70;47.17;;;14.30;99.90;;;;;;4198912;28;20070;-72
2021/09/17 02:27:52;;;;;;;90.70;51.65;;;14.30;99.90;;;;;;4197721;28;20434;-72
2021/09/17 02:29:52;;;;;;;92.78;53.60;;;14.40;99.90;;;;;;4195004;28;20033;-71
2021/09/17 02:31:53;;;;;;;81.95;47.40;;;14.40;99.90;;;;;;4195393;28;20068;-71
2021/09/17 02:33:53;;;;;;;90.00;51.30;;;14.40;99.90;;;;;;4196252;28;20086;-72
2021/09/17 02:35:54;;;;;;;72.78;43.63;;;14.40;99.90;;;;;;4196932;28;20040;-71
2021/09/17 02:37:55;;;;;;;85.90;48.85;;;14.40;99.90;;;;;;4192114;28;20055;-71
2021/09/17 02:39:55;;;;;;;94.40;54.25;;;14.40;99.90;;;;;;4198018;28;20139;-72
2021/09/17 02:41:56;;;;;;;83.18;48.53;;;14.40;99.90;;;;;;4195229;28;20029;-70
2021/09/17 02:43:56;;;;;;;94.03;51.20;;;14.30;99.90;;;;;;4200523;28;20123;-70
2021/09/17 02:45:59;;;;;;;74.00;45.45;;;14.30;99.90;;;;;;4195416;28;20033;-71
2021/09/17 02:47:59;;;;;;;89.00;48.97;;;14.30;99.90;;;;;;4203273;28;20037;-71
2021/09/17 02:50:00;;;;;;;73.30;43.20;;;14.30;99.90;;;;;;4191682;28;20032;-71
2021/09/17 02:52:02;;;;;;;100.50;53.97;;;14.30;99.90;;;;;;4194888;28;20045;-70
2021/09/17 02:54:02;;;;;;;92.72;50.08;;;14.30;99.90;;;;;;4190447;28;20031;-71
2021/09/17 02:56:03;;;;;;;83.78;47.78;;;14.30;99.90;;;;;;4198681;28;20111;-72
2021/09/17 02:58:05;;;;;;;86.35;48.75;;;14.30;99.90;;;;;;4196827;28;20037;-72
2021/09/17 03:00:08;;;;;;;93.82;56.10;;;14.40;99.90;;;;;;4194722;28;20074;-71
2021/09/17 03:02:09;;;;;;;91.80;54.15;;;14.40;99.90;;;;;;4194764;28;20098;-72
2021/09/17 03:04:09;;;;;;;88.55;51.40;;;14.40;99.90;;;;;;4196317;28;20033;-72
2021/09/17 03:06:10;;;;;;;99.55;57.28;;;14.40;99.90;;;;;;4195781;28;20112;-70
2021/09/17 03:08:11;;;;;;;82.75;49.78;;;14.40;99.90;;;;;;4191456;28;20048;-71
2021/09/17 03:10:12;;;;;;;98.43;54.60;;;14.40;99.90;;;;;;4193951;28;20623;-71
2021/09/17 03:12:13;;;;;;;89.32;52.92;;;14.40;99.90;;;;;;4196420;28;20082;-72
2021/09/17 03:14:14;;;;;;;83.70;49.67;;;14.40;99.90;;;;;;4191979;28;20113;-71
2021/09/17 03:16:14;;;;;;;101.85;55.55;;;14.40;99.90;;;;;;4193684;28;20091;-71
2021/09/17 03:18:15;;;;;;;89.82;50.05;;;14.40;99.90;;;;;;4196867;28;20395;-72
2021/09/17 03:20:16;;;;;;;99.85;57.50;;;14.40;99.90;;;;;;4192087;28;20036;-71
2021/09/17 03:22:16;;;;;;;100.13;57.40;;;14.50;99.90;;;;;;4188586;28;20031;-71
2021/09/17 03:24:17;;;;;;;104.45;58.78;;;14.40;99.90;;;;;;4196209;28;20044;-71
2021/09/17 03:26:18;;;;;;;95.18;53.45;;;14.50;99.90;;;;;;4192536;28;20450;-71
2021/09/17 03:28:18;;;;;;;88.65;50.17;;;14.50;99.90;;;;;;4195093;28;20037;-71
2021/09/17 03:30:19;;;;;;;100.18;57.17;;;14.50;99.90;;;;;;4195044;28;20095;-72
2021/09/17 03:32:19;;;;;;;84.07;51.53;;;14.50;99.90;;;;;;4187503;28;20484;-72
2021/09/17 03:34:20;;;;;;;101.65;56.13;;;14.50;99.90;;;;;;4188346;28;20112;-72
2021/09/17 03:36:21;;;;;;;104.07;58.70;;;14.50;99.90;;;;;;4195113;28;20065;-73
2021/09/17 03:38:22;;;;;;;106.78;58.85;;;14.50;99.90;;;;;;4188455;28;20025;-72
2021/09/17 03:40:22;;;;;;;109.95;59.72;;;14.50;99.90;;;;;;4195420;28;20037;-72
2021/09/17 03:42:23;;;;;;;99.88;56.63;;;14.50;99.90;;;;;;4193468;28;20025;-72
2021/09/17 03:44:23;;;;;;;98.32;57.00;;;14.50;99.90;;;;;;4195666;28;20033;-72
2021/09/17 03:46:24;;;;;;;91.07;53.22;;;14.50;99.90;;;;;;4197479;28;20031;-72
2021/09/17 03:48:25;;;;;;;79.70;46.75;;;14.50;99.90;;;;;;4197460;28;20032;-72
2021/09/17 03:50:25;;;;;;;91.88;53.28;;;14.40;99.90;;;;;;4192903;28;20383;-72
2021/09/17 03:52:26;;;;;;;97.53;58.83;;;14.40;99.90;;;;;;4189735;28;20041;-72
2021/09/17 03:54:27;;;;;;;101.60;59.50;;;14.40;99.90;;;;;;4193854;28;20476;-70
2021/09/17 03:56:27;;;;;;;101.80;58.83;;;14.50;99.90;;;;;;4193927;28;20514;-70
2021/09/17 03:58:28;;;;;;;106.10;59.20;;;14.40;99.90;;;;;;4190705;28;20033;-71
2021/09/17 04:00:28;;;;;;;111.55;61.35;;;14.40;99.90;;;;;;4192057;28;20025;-71
2021/09/17 04:02:29;;;;;;;99.50;59.05;;;14.50;99.90;;;;;;4186743;28;20028;-72
2021/09/17 04:04:30;;;;;;;110.03;61.92;;;14.50;99.90;;;;;;4188716;28;20673;-71
2021/09/17 04:06:30;;;;;;;93.75;55.65;;;14.40;99.90;;;;;;4194726;28;20357;-71
2021/09/17 04:08:31;;;;;;;100.60;60.10;;;14.50;99.90;;;;;;4191274;28;20501;-72
2021/09/17 04:10:31;;;;;;;104.85;60.88;;;14.50;99.90;;;;;;4186504;28;20033;-71
2021/09/17 04:12:32;;;;;;;107.70;63.22;;;14.50;99.90;;;;;;4193781;28;20025;-72
2021/09/17 04:14:33;;;;;;;117.25;62.38;;;14.50;99.90;;;;;;4192517;28;20384;-72
2021/09/17 04:16:33;;;;;;;109.95;62.20;;;14.50;99.90;;;;;;4195113;28;20028;-72
2021/09/17 04:18:34;;;;;;;109.53;62.03;;;14.50;99.90;;;;;;4194440;28;20032;-72
2021/09/17 04:20:35;;;;;;;107.32;61.92;;;14.50;99.90;;;;;;4193639;28;20036;-72
2021/09/17 04:22:36;;;;;;;104.47;61.20;;;14.40;99.90;;;;;;4193973;28;20078;-73
2021/09/17 04:24:37;;;;;;;108.55;63.55;;;14.40;99.90;;;;;;4193144;28;20036;-71
2021/09/17 04:26:38;;;;;;;112.30;63.22;;;14.40;99.90;;;;;;4193154;28;20044;-71
2021/09/17 04:28:39;;;;;;;105.25;60.40;;;14.40;99.90;;;;;;4194511;28;20055;-71
2021/09/17 04:30:40;;;;;;;109.63;62.00;;;14.30;99.90;;;;;;4200262;28;20468;-72
2021/09/17 04:32:44;;;;;;;113.03;64.60;;;14.30;99.90;;;;;;4198203;28;20035;-72
2021/09/17 04:34:45;;;;;;;96.13;57.13;;;14.30;99.90;;;;;;4197275;28;20036;-72
2021/09/17 04:36:46;;;;;;;102.90;54.40;;;14.30;99.90;;;;;;4191160;28;20640;-72
2021/09/17 04:38:46;;;;;;;87.90;48.65;;;14.30;99.90;;;;;;4193537;28;20029;-71
2021/09/17 04:40:47;;;;;;;108.95;61.42;;;14.30;99.90;;;;;;4187602;28;20039;-72
2021/09/17 04:42:47;;;;;;;101.80;58.38;;;14.30;99.90;;;;;;4197516;28;20036;-71
2021/09/17 04:44:48;;;;;;;100.47;58.35;;;14.30;99.90;;;;;;4194570;28;20104;-70
2021/09/17 04:46:48;;;;;;;92.03;52.28;;;14.30;99.90;;;;;;4189906;28;20070;-71
2021/09/17 04:48:49;;;;;;;118.65;66.00;;;14.30;99.90;;;;;;4195186;28;20029;-71
2021/09/17 04:50:50;;;;;;;134.27;73.93;;;14.30;99.90;;;;;;4191475;28;20091;-72
2021/09/17 04:52:51;;;;;;;138.68;72.47;;;14.30;99.90;;;;;;4193170;28;20093;-71
2021/09/17 04:54:52;;;;;;;121.43;65.68;;;14.30;99.90;;;;;;4194999;28;20035;-70
2021/09/17 04:56:53;;;;;;;107.57;58.97;;;14.30;99.90;;;;;;4194060;28;20033;-71
2021/09/17 04:58:54;;;;;;;119.38;65.55;;;14.30;99.90;;;;;;4193731;28;20506;-71
2021/09/17 05:00:55;;;;;;;113.32;61.25;;;14.30;99.90;;;;;;4182860;28;20033;-71
2021/09/17 05:02:56;;;;;;;115.05;64.05;;;14.20;99.90;;;;;;4197378;28;20512;-71
2021/09/17 05:04:56;;;;;;;127.05;68.30;;;14.20;99.90;;;;;;4197588;28;20080;-71
2021/09/17 05:06:58;;;;;;;125.30;65.15;;;14.10;99.90;;;;;;4198376;28;20036;-71
2021/09/17 05:09:00;;;;;;;116.07;62.72;;;14.10;99.90;;;;;;4200947;28;20032;-71
2021/09/17 05:11:01;;;;;;;135.32;72.15;;;14.10;99.90;;;;;;4198387;28;20483;-71
2021/09/17 05:13:01;;;;;;;125.45;62.50;;;14.10;99.90;;;;;;4197409;28;20037;-72
2021/09/17 05:15:02;;;;;;;122.15;66.03;;;14.00;99.90;;;;;;4191957;28;20024;-72
2021/09/17 05:17:03;;;;;;;142.93;71.72;;;14.00;99.90;;;;;;4192320;28;20497;-71
2021/09/17 05:19:04;;;;;;;130.05;66.75;;;14.00;99.90;;;;;;4195455;28;20112;-71
2021/09/17 05:21:05;;;;;;;138.93;71.78;;;14.00;99.90;;;;;;4195782;28;20111;-71
2021/09/17 05:23:06;;;;;;;140.05;71.05;;;14.00;99.90;;;;;;4192285;28;20472;-71
2021/09/17 05:25:07;;;;;;;149.73;73.38;;;14.00;99.90;;;;;;4197991;28;20361;-71
2021/09/17 05:27:12;;;;;;;130.75;68.55;;;14.00;99.90;;;;;;4191144;28;20057;-72
2021/09/17 05:29:12;;;;;;;147.75;78.32;;;14.00;99.90;;;;;;4198600;28;20119;-71
2021/09/17 05:31:13;;;;;;;141.23;75.10;;;14.10;99.90;;;;;;4195571;28;20086;-71
2021/09/17 05:33:14;;;;;;;139.93;68.55;;;14.10;99.90;;;;;;4197254;28;20028;-72
2021/09/17 05:35:14;;;;;;;147.98;77.55;;;14.20;99.90;;;;;;4196744;28;20036;-72
2021/09/17 05:37:15;;;;;;;140.65;77.47;;;14.20;99.90;;;;;;4197765;28;20571;-71
2021/09/17 05:39:17;;;;;;;124.55;71.65;;;14.30;99.90;;;;;;4196975;28;20116;-71
2021/09/17 05:41:17;;;;;;;125.93;72.43;;;14.40;99.90;;;;;;4194551;28;20033;-71
2021/09/17 05:43:18;;;;;;;123.18;72.90;;;14.40;99.90;;;;;;4188564;28;20108;-71
2021/09/17 05:45:18;;;;;;;124.82;70.68;;;14.50;99.90;;;;;;4188460;28;20582;-71
2021/09/17 05:47:19;;;;;;;130.38;73.95;;;14.50;99.90;;;;;;4186668;28;20048;-71
2021/09/17 05:49:20;;;;;;;121.90;74.88;;;14.60;99.90;;;;;;4187741;28;20369;-71
2021/09/17 05:51:20;;;;;;;118.50;72.35;;;14.60;99.90;;;;;;4188000;28;20048;-71
2021/09/17 05:53:21;;;;;;;112.75;69.90;;;14.70;99.90;;;;;;4182975;28;20037;-72
2021/09/17 05:55:26;;;;;;;97.95;61.85;;;14.70;99.90;;;;;;4185896;28;20049;-71
2021/09/17 05:57:27;;;;;;;108.93;67.40;;;14.80;99.90;;;;;;4185426;28;20039;-69
2021/09/17 05:59:28;;;;;;;100.57;66.82;;;14.80;99.90;;;;;;4184185;28;20033;-70
2021/09/17 06:01:28;;;;;;;100.18;64.57;;;14.90;99.90;;;;;;4194410;28;20098;-70
2021/09/17 06:03:29;;;;;;;104.28;65.13;;;15.00;99.90;;;;;;4196957;28;20036;-70
2021/09/17 06:05:29;;;;;;;95.10;65.50;;;15.00;99.90;;;;;;4195553;28;20094;-70
2021/09/17 06:07:30;;;;;;;87.18;60.00;;;15.10;99.90;;;;;;4195132;28;20063;-71
2021/09/17 06:09:30;;;;;;;92.68;62.58;;;15.10;99.90;;;;;;4196488;28;20472;-71
2021/09/17 06:11:31;;;;;;;82.72;60.58;;;15.10;99.90;;;;;;4194441;28;20124;-71
2021/09/17 06:13:32;;;;;;;82.05;55.47;;;15.20;99.90;;;;;;4196153;28;20379;-71
2021/09/17 06:15:32;;;;;;;89.32;60.42;;;15.30;99.90;;;;;;4197313;28;20043;-71
2021/09/17 06:17:33;;;;;;;82.68;58.67;;;15.30;99.90;;;;;;4198474;28;20033;-71
2021/09/17 06:19:34;;;;;;;76.65;55.13;;;15.40;99.90;;;;;;4194832;28;20676;-70
2021/09/17 06:21:34;;;;;;;78.78;58.35;;;15.40;99.90;;;;;;4197351;28;20036;-71
2021/09/17 06:23:35;;;;;;;74.55;54.53;;;15.50;99.90;;;;;;4186921;28;20040;-71
2021/09/17 06:25:35;;;;;;;81.28;59.50;;;15.50;99.90;;;;;;4191434;28;20032;-71
2021/09/17 06:27:36;;;;;;;78.32;56.25;;;15.60;99.90;;;;;;4194393;28;20085;-70
2021/09/17 06:29:37;;;;;;;85.60;60.55;;;15.60;99.90;;;;;;4185222;28;20029;-70
2021/09/17 06:31:38;;;;;;;81.07;58.47;;;15.70;99.90;;;;;;4185187;28;20029;-71
2021/09/17 06:33:38;;;;;;;79.88;56.63;;;15.70;99.90;;;;;;4187104;28;20040;-71
2021/09/17 06:35:39;;;;;;;83.13;57.45;;;15.70;99.90;;;;;;4183671;28;20100;-71
2021/09/17 06:37:47;;;;;;;79.32;57.17;;;15.80;99.90;;;;;;4182230;28;20032;-71
2021/09/17 06:39:48;;;;;;;81.03;56.72;;;15.80;99.90;;;;;;4188888;28;20152;-71
2021/09/17 06:41:51;;;;;;;75.10;55.45;;;15.90;99.90;;;;;;4192951;28;20408;-71
2021/09/17 06:43:52;;;;;;;70.18;53.75;;;15.90;99.90;;;;;;4183051;28;20033;-71
2021/09/17 06:45:52;;;;;;;70.78;52.83;;;15.90;99.90;;;;;;4197630;28;20033;-72
2021/09/17 06:47:58;;;;;;;72.65;54.22;;;16.00;99.90;;;;;;4193178;28;20529;-72
2021/09/17 06:50:00;;;;;;;64.47;51.28;;;16.00;99.90;;;;;;4193635;28;20111;-71
2021/09/17 06:52:01;;;;;;;71.35;53.42;;;16.00;99.90;;;;;;4195168;28;20044;-71
2021/09/17 06:54:02;;;;;;;76.25;53.92;;;16.10;99.90;;;;;;4193159;28;20408;-72
2021/09/17 06:56:03;;;;;;;66.70;51.88;;;16.10;99.90;;;;;;4190877;28;20040;-71
2021/09/17 06:58:04;;;;;;;66.47;52.83;;;16.10;99.90;;;;;;4190465;28;20364;-72
2021/09/17 07:00:06;;;;;;;68.03;52.13;;;16.10;99.90;;;;;;4197800;28;20036;-70
2021/09/17 07:02:07;;;;;;;71.65;54.35;;;16.10;99.90;;;;;;4190923;28;20116;-69
2021/09/17 07:04:07;;;;;;;73.75;53.70;;;16.10;99.90;;;;;;4185657;28;20094;-69
2021/09/17 07:06:08;;;;;;;71.85;52.20;;;16.10;99.90;;;;;;4183618;28;20033;-71
2021/09/17 07:08:09;;;;;;;67.03;50.38;;;16.10;99.90;;;;;;4191068;28;20036;-71
2021/09/17 07:10:11;;;;;;;69.95;50.40;;;16.10;99.90;;;;;;4185498;28;20067;-71
2021/09/17 07:12:11;;;;;;;63.50;48.90;;;16.20;99.90;;;;;;4190980;28;20071;-71
2021/09/17 07:14:12;;;;;;;68.45;52.97;;;16.20;99.90;;;;;;4189939;28;20701;-72
2021/09/17 07:16:13;;;;;;;71.68;50.33;;;16.30;99.90;;;;;;4195121;28;20047;-71
2021/09/17 07:18:13;;;;;;;67.03;50.63;;;16.40;99.90;;;;;;4195581;28;20487;-72
2021/09/17 07:20:14;;;;;;;60.53;49.10;;;16.40;99.90;;;;;;4193092;28;20427;-72
2021/09/17 07:22:15;;;;;;;63.78;48.22;;;16.40;99.90;;;;;;4192651;28;20448;-71
2021/09/17 07:24:15;;;;;;;64.03;49.10;;;16.50;99.90;;;;;;4195066;28;20032;-71
2021/09/17 07:26:16;;;;;;;60.60;47.55;;;16.60;99.90;;;;;;4194092;28;20797;-71
2021/09/17 07:28:17;;;;;;;68.30;46.83;;;16.60;99.90;;;;;;4197747;28;20082;-71
2021/09/17 07:30:19;;;;;;;62.00;47.85;;;16.70;99.90;;;;;;4195695;28;20040;-71
2021/09/17 07:32:20;;;;;;;59.10;45.40;;;16.80;99.90;;;;;;4195330;28;20036;-71
2021/09/17 07:34:20;;;;;;;54.83;45.72;;;16.80;99.90;;;;;;4197379;28;20043;-72
2021/09/17 07:36:21;;;;;;;56.65;44.90;;;16.90;99.90;;;;;;4198335;28;20040;-71
2021/09/17 07:38:21;;;;;;;59.33;44.55;;;16.90;99.90;;;;;;4197083;28;20032;-70
2021/09/17 07:40:22;;;;;;;51.78;43.65;;;17.10;99.90;;;;;;4193483;28;20067;-71
2021/09/17 07:42:23;;;;;;;52.30;43.25;;;17.20;99.90;;;;;;4196077;28;20036;-71
2021/09/17 07:44:23;;;;;;;64.72;46.88;;;17.30;99.90;;;;;;4195473;28;20040;-71
2021/09/17 07:46:24;;;;;;;53.50;46.47;;;17.40;99.90;;;;;;4195230;28;20113;-71
2021/09/17 07:48:25;;;;;;;54.88;45.17;;;17.40;99.90;;;;;;4198496;28;20048;-71
2021/09/17 07:50:25;;;;;;;58.80;47.60;;;17.50;99.90;;;;;;4195800;28;20394;-72
2021/09/17 07:52:26;;;;;;;61.10;45.20;;;17.50;99.90;;;;;;4196500;28;20035;-71
2021/09/17 07:54:28;;;;;;;53.05;42.60;;;17.60;99.90;;;;;;4196893;28;20117;-72
2021/09/17 07:56:29;;;;;;;49.30;43.92;;;17.70;99.90;;;;;;4196916;28;20032;-71
2021/09/17 07:58:29;;;;;;;55.38;44.80;;;17.80;99.90;;;;;;4197380;28;20035;-70
2021/09/17 08:00:30;;;;;;;52.85;44.72;;;17.90;99.90;;;;;;4196475;28;20036;-71
2021/09/17 08:02:30;;;;;;;49.83;40.83;;;18.10;99.90;;;;;;4195936;28;20119;-70
2021/09/17 08:04:31;;;;;;;53.88;43.97;;;18.20;99.90;;;;;;4194657;28;20039;-72
2021/09/17 08:06:31;;;;;;;51.75;41.60;;;18.20;99.90;;;;;;4194975;28;20129;-71
2021/09/17 08:08:32;;;;;;;53.03;42.40;;;18.30;99.90;;;;;;4191858;28;20048;-71
2021/09/17 08:10:33;;;;;;;53.13;41.92;;;18.40;99.90;;;;;;4191572;28;20024;-71
2021/09/17 08:12:34;;;;;;;47.35;39.92;;;18.60;99.90;;;;;;4193576;28;20387;-71
2021/09/17 08:14:35;;;;;;;48.10;40.15;;;18.70;99.90;;;;;;4194155;28;20395;-71
2021/09/17 08:16:35;;;;;;;44.25;38.00;;;18.90;99.90;;;;;;4193857;28;20028;-71
2021/09/17 08:18:36;;;;;;;44.88;38.67;;;19.00;99.90;;;;;;4197823;28;20039;-71
2021/09/17 08:20:40;;;;;;;41.53;35.08;;;19.10;99.90;;;;;;4191624;28;20021;-71
2021/09/17 08:22:40;;;;;;;40.22;31.55;;;19.20;99.90;;;;;;4186056;28;20151;-72
2021/09/17 08:24:41;;;;;;;44.08;37.22;;;19.40;99.90;;;;;;4185634;28;20044;-72
2021/09/17 08:26:47;;;;;;;43.05;36.58;;;19.60;99.90;;;;;;4187770;28;20029;-72
2021/09/17 08:28:48;;;;;;;39.10;34.67;;;19.70;99.90;;;;;;4186721;28;20056;-70
2021/09/17 08:30:50;;;;;;;43.65;37.17;;;20.00;99.90;;;;;;4185355;28;20029;-70
2021/09/17 08:32:51;;;;;;;40.15;35.85;;;20.10;99.90;;;;;;4187961;28;20678;-70
2021/09/17 08:34:51;;;;;;;36.95;33.00;;;20.20;99.90;;;;;;4189215;28;20119;-70
2021/09/17 08:36:52;;;;;;;38.35;34.30;;;20.30;99.90;;;;;;4193349;28;20036;-71
2021/09/17 08:38:52;;;;;;;39.17;33.55;;;20.50;99.90;;;;;;4195411;28;20052;-70
2021/09/17 08:40:54;;;;;;;41.50;33.58;;;20.50;99.90;;;;;;4192282;28;20040;-70
2021/09/17 08:42:59;;;;;;;37.33;33.22;;;20.50;99.90;;;;;;4194016;28;20032;-70
2021/09/17 08:45:00;;;;;;;34.35;30.70;;;20.50;99.90;;;;;;4187685;28;20078;-71
2021/09/17 08:47:02;;;;;;;38.80;32.22;;;20.50;99.90;;;;;;4190831;28;20035;-72
2021/09/17 08:49:04;;;;;;;27.50;24.02;;;20.50;99.90;;;;;;4195646;28;20104;-70
2021/09/17 08:51:05;;;;;;;28.77;23.85;;;20.60;99.90;;;;;;4198880;28;20510;-70
2021/09/17 08:53:06;;;;;;;24.15;21.73;;;20.70;99.90;;;;;;4198799;28;20070;-70
2021/09/17 08:55:07;;;;;;;25.40;22.83;;;20.80;99.90;;;;;;4198362;28;20029;-71
2021/09/17 08:57:08;;;;;;;22.40;18.88;;;20.90;99.90;;;;;;4198544;28;20586;-70
2021/09/17 08:59:09;;;;;;;22.30;18.90;;;20.90;99.90;;;;;;4186468;28;20045;-70
2021/09/17 09:01:30;;;;;;;23.23;19.20;;;20.80;99.90;;;;;;4188675;28;20044;-71
2021/09/17 09:03:33;;;;;;;20.38;18.27;;;20.50;99.90;;;;;;4194752;28;20041;-72
2021/09/17 09:05:34;;;;;;;;;;;20.40;99.90;;;;;;4197352;28;20123;-72
2021/09/17 09:07:39;;;;;;;21.88;18.70;;;20.30;99.90;;;;;;4194570;28;20277;-71
2021/09/17 09:09:46;;;;;;;19.85;17.70;;;20.30;99.90;;;;;;4187833;28;20037;-72
2021/09/17 09:11:48;;;;;;;20.10;18.08;;;20.40;99.90;;;;;;4195754;28;20477;-71
2021/09/17 09:14:09;;;;;;;23.00;20.57;;;20.40;99.90;;;;;;4197008;28;20041;-71
2021/09/17 09:16:18;;;;;;;21.80;17.92;;;20.40;99.90;;;;;;4194709;28;20032;-71
2021/09/17 09:18:20;;;;;;;24.95;20.10;;;20.40;99.90;;;;;;4191867;28;20045;-70
2021/09/17 09:20:25;;;;;;;23.40;19.35;;;20.40;99.90;;;;;;4197215;28;20067;-72
2021/09/17 09:22:26;;;;;;;25.20;19.98;;;20.40;99.90;;;;;;4197508;28;20032;-72
2021/09/17 09:24:26;;;;;;;22.02;19.65;;;20.40;99.90;;;;;;4197933;28;20114;-72
2021/09/17 09:26:27;;;;;;;26.35;22.45;;;20.40;99.90;;;;;;4192587;28;20151;-69
2021/09/17 09:28:46;;;;;;;24.25;21.67;;;20.40;99.90;;;;;;4188169;28;20036;-72
2021/09/17 09:30:46;;;;;;;29.50;24.23;;;20.40;99.90;;;;;;4184342;28;20041;-72
2021/09/17 09:32:47;;;;;;;26.05;23.42;;;20.30;99.90;;;;;;4188007;28;20095;-72
2021/09/17 09:34:56;;;;;;;28.13;25.27;;;20.30;99.90;;;;;;4190492;28;20426;-72
2021/09/17 09:37:06;;;;;;;27.52;24.65;;;20.20;99.90;;;;;;4189918;28;20040;-72
2021/09/17 09:39:08;;;;;;;29.25;23.92;;;20.10;99.90;;;;;;4187983;28;20163;-72
2021/09/17 09:41:18;;;;;;;27.70;24.23;;;20.10;99.90;;;;;;4196965;28;20036;-71
2021/09/17 09:43:30;;;;;;;33.90;26.27;;;20.20;99.90;;;;;;4190211;28;20040;-72
2021/09/17 09:45:31;;;;;;;28.17;25.17;;;20.30;99.90;;;;;;4193669;28;20742;-72
2021/09/17 09:47:34;;;;;;;30.92;27.65;;;20.40;99.90;;;;;;4192356;28;20067;-72
2021/09/17 09:49:37;;;;;;;31.48;26.48;;;20.30;99.90;;;;;;4196193;28;20407;-72
2021/09/17 09:51:52;;;;;;;31.05;27.77;;;20.30;99.90;;;;;;4195989;28;20550;-72
2021/09/17 09:53:53;;;;;;;31.77;27.38;;;20.50;99.90;;;;;;4194111;28;20032;-72
2021/09/17 09:55:53;;;;;;;30.95;27.25;;;20.60;99.90;;;;;;4197323;28;20059;-71
2021/09/17 09:57:55;;;;;;;31.52;28.13;;;20.80;99.90;;;;;;4192809;28;20068;-71
2021/09/17 09:59:59;;;;;;;31.23;27.88;;;20.80;99.90;;;;;;4194854;28;20496;-71
2021/09/17 10:02:03;;;;;;;33.67;28.20;;;20.90;99.90;;;;;;4191104;28;20503;-71
2021/09/17 10:04:05;;;;;;;29.10;25.95;;;21.10;99.90;;;;;;4194737;28;20545;-71
2021/09/17 10:06:05;;;;;;;30.15;26.17;;;21.10;99.90;;;;;;4189840;28;20039;-71
2021/09/17 10:08:07;;;;;;;30.65;26.00;;;21.20;99.90;;;;;;4193420;28;20037;-71
2021/09/17 10:10:10;;;;;;;31.85;26.02;;;21.30;99.90;;;;;;4194307;28;20043;-72
2021/09/17 10:12:13;;;;;;;30.02;25.15;;;21.30;99.90;;;;;;4188908;28;20037;-70
2021/09/17 10:14:14;;;;;;;31.10;25.50;;;21.40;99.90;;;;;;4186651;28;20036;-72